createdAt,value
2017-05-10T00:01:25.175Z,7.85
2017-05-10T00:03:53.774Z,7.20
2017-05-10T00:06:22.324Z,7.23
2017-05-10T00:08:50.867Z,7.92
2017-05-10T00:11:19.438Z,8.28
2017-05-10T00:13:47.979Z,10.22
2017-05-10T00:16:16.522Z,9.62
2017-05-10T00:18:45.121Z,9.95
2017-05-10T00:21:13.668Z,9.78
2017-05-10T00:23:42.197Z,8.58
2017-05-10T00:26:10.791Z,10.52
2017-05-10T00:28:39.346Z,10.77
2017-05-10T00:31:08.640Z,11.98
2017-05-10T00:33:37.259Z,10.92
2017-05-10T00:36:05.838Z,12.70
2017-05-10T00:38:34.418Z,13.60
2017-05-10T00:41:02.991Z,13.32
2017-05-10T00:43:31.545Z,16.28
2017-05-10T00:46:00.095Z,16.08
2017-05-10T00:48:28.675Z,15.65
2017-05-10T00:50:57.251Z,16.50
2017-05-10T00:53:25.797Z,16.72
2017-05-10T00:55:54.402Z,16.40
2017-05-10T00:58:22.942Z,18.73
2017-05-10T01:00:51.504Z,18.22
2017-05-10T01:03:20.094Z,19.27
2017-05-10T01:05:48.634Z,18.77
2017-05-10T01:08:17.180Z,17.50
2017-05-10T01:10:45.783Z,20.22
2017-05-10T01:13:14.335Z,19.02
2017-05-10T01:15:42.888Z,17.93
2017-05-10T01:18:11.501Z,19.65
2017-05-10T01:20:40.072Z,19.52
2017-05-10T01:23:08.628Z,18.05
2017-05-10T01:25:37.201Z,19.68
2017-05-10T01:28:05.774Z,18.70
2017-05-10T01:30:34.338Z,19.13
2017-05-10T01:33:02.933Z,17.95
2017-05-10T01:35:31.482Z,20.20
2017-05-10T01:38:00.021Z,19.07
2017-05-10T01:40:28.612Z,19.88
2017-05-10T01:42:57.159Z,18.85
2017-05-10T01:45:25.724Z,18.88
2017-05-10T01:47:54.322Z,20.72
2017-05-10T01:50:22.878Z,19.67
2017-05-10T01:52:51.430Z,21.85
2017-05-10T01:55:20.003Z,22.05
2017-05-10T01:57:48.549Z,21.18
2017-05-10T02:00:17.101Z,21.77
2017-05-10T02:02:45.695Z,21.97
2017-05-10T02:05:14.245Z,20.57
2017-05-10T02:07:42.787Z,21.47
2017-05-10T02:10:11.405Z,21.30
2017-05-10T02:12:39.954Z,21.93
2017-05-10T02:15:08.503Z,21.00
2017-05-10T02:17:37.102Z,24.78
2017-05-10T02:20:05.674Z,23.18
2017-05-10T02:22:34.209Z,23.55
2017-05-10T02:25:02.804Z,22.32
2017-05-10T02:27:31.385Z,21.48
2017-05-10T02:29:59.973Z,22.18
2017-05-10T02:32:28.599Z,21.28
2017-05-10T02:34:57.169Z,22.85
2017-05-10T02:37:25.759Z,28.45
2017-05-10T02:39:54.369Z,24.30
2017-05-10T02:42:22.935Z,24.47
2017-05-10T02:44:51.516Z,21.65
2017-05-10T02:47:20.101Z,23.12
2017-05-10T02:49:48.649Z,23.72
2017-05-10T02:52:17.199Z,21.50
2017-05-10T02:54:45.794Z,18.67
2017-05-10T02:57:14.342Z,20.32
2017-05-10T02:59:42.880Z,19.10
2017-05-10T03:02:11.467Z,19.27
2017-05-10T03:04:40.028Z,19.37
2017-05-10T03:07:08.595Z,19.05
2017-05-10T03:09:37.184Z,18.88
2017-05-10T03:12:05.728Z,21.13
2017-05-10T03:14:34.249Z,19.37
2017-05-10T03:17:02.805Z,17.67
2017-05-10T03:19:31.332Z,20.18
2017-05-10T03:21:59.857Z,20.05
2017-05-10T03:24:28.433Z,20.92
2017-05-10T03:26:56.961Z,19.48
2017-05-10T03:29:25.504Z,18.87
2017-05-10T03:31:54.070Z,19.33
2017-05-10T03:34:22.608Z,20.72
2017-05-10T03:36:51.130Z,21.72
2017-05-10T03:39:19.695Z,20.58
2017-05-10T03:41:48.226Z,20.55
2017-05-10T03:44:16.746Z,18.47
2017-05-10T03:46:45.308Z,22.07
2017-05-10T03:49:13.829Z,21.77
2017-05-10T03:51:42.345Z,21.97
2017-05-10T03:54:10.925Z,18.22
2017-05-10T03:56:39.454Z,17.00
2017-05-10T03:59:07.975Z,17.57
2017-05-10T04:01:36.546Z,17.73
2017-05-10T04:04:05.064Z,16.58
2017-05-10T04:06:33.587Z,17.15
2017-05-10T04:09:02.185Z,18.37
2017-05-10T04:11:30.709Z,15.32
2017-05-10T04:13:59.236Z,13.75
2017-05-10T04:16:28.589Z,14.18
2017-05-10T04:18:57.108Z,13.90
2017-05-10T04:21:25.637Z,13.67
2017-05-10T04:23:54.207Z,13.85
2017-05-10T04:26:22.737Z,12.82
2017-05-10T04:28:51.254Z,14.50
2017-05-10T04:31:19.844Z,13.52
2017-05-10T04:33:48.376Z,13.20
2017-05-10T04:36:16.915Z,12.03
2017-05-10T04:38:45.473Z,13.22
2017-05-10T04:41:13.988Z,13.03
2017-05-10T04:43:42.524Z,12.08
2017-05-10T04:46:11.114Z,11.62
2017-05-10T04:48:39.640Z,12.18
2017-05-10T04:51:08.152Z,12.43
2017-05-10T04:53:36.723Z,11.47
2017-05-10T04:56:05.260Z,11.38
2017-05-10T04:58:33.782Z,9.08
2017-05-10T05:01:02.377Z,10.92
2017-05-10T05:03:30.907Z,10.27
2017-05-10T05:05:59.430Z,11.48
2017-05-10T05:08:28.025Z,11.48
2017-05-10T05:10:56.608Z,10.63
2017-05-10T05:13:25.144Z,10.17
2017-05-10T05:15:53.693Z,10.85
2017-05-10T05:18:22.212Z,10.43
2017-05-10T05:20:50.720Z,11.73
2017-05-10T05:23:19.276Z,9.90
2017-05-10T05:25:47.785Z,10.53
2017-05-10T05:28:16.337Z,12.48
2017-05-10T05:30:44.892Z,13.50
2017-05-10T05:33:13.400Z,9.97
2017-05-10T05:35:41.914Z,10.33
2017-05-10T05:38:10.463Z,10.15
2017-05-10T05:40:38.967Z,9.72
2017-05-10T05:43:07.491Z,8.85
2017-05-10T05:45:36.046Z,8.37
2017-05-10T05:48:04.555Z,9.43
2017-05-10T05:50:33.092Z,9.25
2017-05-10T05:53:01.666Z,10.83
2017-05-10T05:55:30.185Z,9.38
2017-05-10T05:57:58.724Z,10.08
2017-05-10T06:00:27.287Z,8.18
2017-05-10T06:02:55.828Z,7.50
2017-05-10T06:05:24.357Z,8.00
2017-05-10T06:07:52.948Z,8.23
2017-05-10T06:10:21.469Z,8.98
2017-05-10T06:12:49.984Z,8.30
2017-05-10T06:15:18.543Z,8.60
2017-05-10T06:17:47.064Z,7.88
2017-05-10T06:20:15.580Z,7.20
2017-05-10T06:22:44.129Z,9.25
2017-05-10T06:25:12.635Z,8.43
2017-05-10T06:27:41.140Z,7.82
2017-05-10T06:30:10.433Z,8.68
2017-05-10T06:32:38.951Z,8.72
2017-05-10T06:35:07.451Z,7.93
2017-05-10T06:37:36.015Z,7.18
2017-05-10T06:40:04.526Z,6.52
2017-05-10T06:42:33.039Z,8.90
2017-05-10T06:45:01.584Z,7.42
2017-05-10T06:47:30.080Z,8.35
2017-05-10T06:49:58.585Z,8.17
2017-05-10T06:52:27.128Z,8.00
2017-05-10T06:54:55.632Z,8.63
2017-05-10T06:57:24.140Z,8.23
2017-05-10T06:59:52.685Z,7.35
2017-05-10T07:02:21.189Z,8.07
2017-05-10T07:04:49.696Z,8.15
2017-05-10T07:07:18.237Z,7.48
2017-05-10T07:09:46.738Z,7.80
2017-05-10T07:12:15.250Z,7.45
2017-05-10T07:14:43.829Z,9.87
2017-05-10T07:17:12.342Z,7.65
2017-05-10T07:19:40.852Z,7.88
2017-05-10T07:22:09.410Z,7.12
2017-05-10T07:24:37.928Z,7.07
2017-05-10T07:27:06.477Z,6.72
2017-05-10T07:29:35.033Z,6.00
2017-05-10T07:32:03.537Z,5.70
2017-05-10T07:34:32.051Z,6.28
2017-05-10T07:37:00.596Z,5.47
2017-05-10T07:39:29.101Z,8.22
2017-05-10T07:41:57.612Z,8.45
2017-05-10T07:44:26.166Z,6.60
2017-05-10T07:46:54.682Z,7.68
2017-05-10T07:49:23.198Z,6.62
2017-05-10T07:51:51.743Z,6.53
2017-05-10T07:54:20.245Z,7.20
2017-05-10T07:56:48.748Z,5.60
2017-05-10T07:59:17.294Z,5.82
2017-05-10T08:01:45.798Z,6.93
2017-05-10T08:04:14.301Z,6.47
2017-05-10T08:06:42.868Z,6.20
2017-05-10T08:09:11.363Z,7.13
2017-05-10T08:11:39.874Z,7.22
2017-05-10T08:14:08.426Z,5.88
2017-05-10T08:16:36.947Z,7.18
2017-05-10T08:19:05.453Z,5.22
2017-05-10T08:21:34.006Z,5.50
2017-05-10T08:24:02.522Z,5.78
2017-05-10T08:26:31.051Z,6.00
2017-05-10T08:28:59.627Z,6.02
2017-05-10T08:31:28.138Z,6.02
2017-05-10T08:33:56.653Z,6.00
2017-05-10T08:36:25.199Z,7.13
2017-05-10T08:38:53.706Z,5.60
2017-05-10T08:41:22.204Z,5.28
2017-05-10T08:43:50.754Z,4.97
2017-05-10T08:46:19.265Z,4.13
2017-05-10T08:48:47.770Z,4.73
2017-05-10T08:51:16.326Z,4.73
2017-05-10T08:53:44.835Z,5.03
2017-05-10T08:56:14.088Z,5.28
2017-05-10T08:58:42.636Z,5.87
2017-05-10T09:01:11.141Z,4.82
2017-05-10T09:03:39.648Z,5.93
2017-05-10T09:06:08.193Z,5.68
2017-05-10T09:08:36.704Z,6.23
2017-05-10T09:11:05.205Z,4.87
2017-05-10T09:13:33.774Z,4.38
2017-05-10T09:16:02.284Z,6.00
2017-05-10T09:18:30.791Z,5.57
2017-05-10T09:20:59.341Z,6.68
2017-05-10T09:23:27.841Z,4.65
2017-05-10T09:25:56.355Z,5.45
2017-05-10T09:28:24.904Z,4.10
2017-05-10T09:30:53.408Z,3.92
2017-05-10T09:33:21.922Z,5.62
2017-05-10T09:35:50.487Z,4.43
2017-05-10T09:38:18.992Z,5.50
2017-05-10T09:40:47.560Z,12.60
2017-05-10T09:43:16.105Z,5.68
2017-05-10T09:45:44.616Z,4.78
2017-05-10T09:48:13.124Z,5.73
2017-05-10T09:50:41.712Z,4.02
2017-05-10T09:53:10.213Z,4.20
2017-05-10T09:55:38.740Z,5.55
2017-05-10T09:58:07.286Z,5.38
2017-05-10T10:00:35.800Z,5.50
2017-05-10T10:03:04.309Z,4.10
2017-05-10T10:05:32.849Z,4.90
2017-05-10T10:08:01.353Z,3.85
2017-05-10T10:10:29.873Z,4.20
2017-05-10T10:12:58.424Z,4.05
2017-05-10T10:15:26.932Z,4.32
2017-05-10T10:17:55.437Z,4.33
2017-05-10T10:20:24.008Z,4.32
2017-05-10T10:22:52.517Z,3.97
2017-05-10T10:25:21.030Z,4.12
2017-05-10T10:27:49.571Z,3.72
2017-05-10T10:30:18.079Z,3.45
2017-05-10T10:32:46.594Z,4.48
2017-05-10T10:35:15.146Z,3.65
2017-05-10T10:37:43.660Z,3.90
2017-05-10T10:40:12.166Z,4.02
2017-05-10T10:42:40.718Z,4.15
2017-05-10T10:45:09.241Z,5.02
2017-05-10T10:47:37.749Z,4.12
2017-05-10T10:50:06.304Z,4.42
2017-05-10T10:52:34.813Z,3.73
2017-05-10T10:55:03.316Z,3.88
2017-05-10T10:57:31.871Z,4.22
2017-05-10T11:00:00.380Z,4.68
2017-05-10T11:02:28.904Z,3.45
2017-05-10T11:04:57.444Z,3.52
2017-05-10T11:07:25.957Z,2.82
2017-05-10T11:09:54.467Z,4.68
2017-05-10T11:12:23.039Z,4.05
2017-05-10T11:14:51.547Z,4.45
2017-05-10T11:17:20.047Z,3.12
2017-05-10T11:19:48.603Z,3.07
2017-05-10T11:22:17.112Z,2.95
2017-05-10T11:24:45.612Z,2.95
2017-05-10T11:27:14.156Z,3.92
2017-05-10T11:29:42.657Z,3.30
2017-05-10T11:32:11.163Z,3.42
2017-05-10T11:34:39.705Z,3.28
2017-05-10T11:37:08.206Z,3.22
2017-05-10T11:39:36.713Z,3.50
2017-05-10T11:42:05.266Z,4.77
2017-05-10T11:44:33.776Z,4.37
2017-05-10T11:47:02.276Z,3.97
2017-05-10T11:49:30.818Z,3.30
2017-05-10T11:51:59.325Z,3.17
2017-05-10T11:54:27.830Z,3.77
2017-05-10T11:56:56.389Z,2.85
2017-05-10T11:59:24.908Z,3.78
2017-05-10T12:01:53.411Z,3.40
2017-05-10T12:04:22.050Z,3.38
2017-05-10T12:06:50.653Z,3.93
2017-05-10T12:09:19.275Z,3.40
2017-05-10T12:11:47.919Z,3.37
2017-05-10T12:14:16.511Z,3.55
2017-05-10T12:16:45.123Z,3.85
2017-05-10T12:19:13.769Z,2.58
2017-05-10T12:21:42.277Z,4.78
2017-05-10T12:24:10.775Z,3.32
2017-05-10T12:26:39.325Z,3.38
2017-05-10T12:29:07.830Z,4.42
2017-05-10T12:31:36.333Z,3.92
2017-05-10T12:34:04.913Z,3.25
2017-05-10T12:36:33.416Z,3.52
2017-05-10T12:39:01.930Z,3.58
2017-05-10T12:41:30.477Z,4.42
2017-05-10T12:43:58.985Z,4.22
2017-05-10T12:46:27.491Z,3.68
2017-05-10T12:48:56.043Z,4.32
2017-05-10T12:51:24.555Z,3.87
2017-05-10T12:53:53.055Z,5.97
2017-05-10T12:56:21.598Z,3.98
2017-05-10T12:58:50.103Z,3.38
2017-05-10T13:01:18.603Z,3.15
2017-05-10T13:03:47.149Z,4.42
2017-05-10T13:06:15.664Z,4.60
2017-05-10T13:08:44.173Z,4.02
2017-05-10T13:11:12.711Z,4.80
2017-05-10T13:13:41.216Z,5.18
2017-05-10T13:16:09.728Z,5.83
2017-05-10T13:18:38.306Z,4.82
2017-05-10T13:21:06.815Z,4.18
2017-05-10T13:23:35.336Z,4.40
2017-05-10T13:26:03.881Z,5.23
2017-05-10T13:28:32.394Z,4.22
2017-05-10T13:31:00.907Z,4.05
2017-05-10T13:33:29.453Z,4.83
2017-05-10T13:35:58.013Z,4.15
2017-05-10T13:38:26.534Z,3.63
2017-05-10T13:40:55.081Z,4.28
2017-05-10T13:43:23.584Z,5.78
2017-05-10T13:45:52.092Z,3.77
2017-05-10T13:48:20.641Z,3.90
2017-05-10T13:50:49.153Z,3.42
2017-05-10T13:53:17.667Z,3.15
2017-05-10T13:55:46.220Z,4.10
2017-05-10T13:58:14.736Z,3.65
2017-05-10T14:00:43.245Z,3.82
2017-05-10T14:03:11.796Z,3.93
2017-05-10T14:05:40.306Z,4.73
2017-05-10T14:08:08.826Z,5.00
2017-05-10T14:10:37.386Z,4.35
2017-05-10T14:13:05.895Z,3.87
2017-05-10T14:15:34.407Z,3.47
2017-05-10T14:18:02.982Z,3.00
2017-05-10T14:20:31.493Z,3.98
2017-05-10T14:23:00.003Z,3.08
2017-05-10T14:25:28.552Z,5.28
2017-05-10T14:27:57.051Z,3.90
2017-05-10T14:30:25.545Z,3.33
2017-05-10T14:32:54.095Z,4.47
2017-05-10T14:35:23.263Z,4.95
2017-05-10T14:37:51.772Z,3.85
2017-05-10T14:40:20.326Z,5.77
2017-05-10T14:42:48.846Z,4.27
2017-05-10T14:45:17.357Z,4.13
2017-05-10T14:47:45.925Z,3.57
2017-05-10T14:50:14.432Z,3.73
2017-05-10T14:52:42.942Z,4.62
2017-05-10T14:55:12.237Z,4.38
2017-05-10T14:57:40.762Z,4.57
2017-05-10T15:00:09.312Z,4.15
2017-05-10T15:02:37.873Z,4.82
2017-05-10T15:05:06.384Z,4.88
2017-05-10T15:07:34.890Z,5.33
2017-05-10T15:10:03.456Z,4.60
2017-05-10T15:12:31.965Z,5.50
2017-05-10T15:15:00.473Z,4.52
2017-05-10T15:17:29.058Z,4.47
2017-05-10T15:19:57.561Z,5.10
2017-05-10T15:22:26.081Z,7.65
2017-05-10T15:24:54.654Z,5.60
2017-05-10T15:27:23.165Z,4.47
2017-05-10T15:29:51.671Z,5.03
2017-05-10T15:32:20.265Z,4.25
2017-05-10T15:34:48.803Z,4.02
2017-05-10T15:37:18.076Z,3.65
2017-05-10T15:39:46.646Z,4.42
2017-05-10T15:42:15.217Z,5.82
2017-05-10T15:44:43.759Z,3.98
2017-05-10T15:47:12.346Z,5.10
2017-05-10T15:49:40.938Z,5.15
2017-05-10T15:52:09.782Z,6.33
2017-05-10T15:54:38.332Z,6.52
2017-05-10T15:57:06.925Z,4.22
2017-05-10T15:59:35.451Z,4.12
2017-05-10T16:02:04.126Z,4.53
2017-05-10T16:04:32.679Z,5.17
2017-05-10T16:07:01.234Z,4.65
2017-05-10T16:09:29.798Z,4.68
2017-05-10T16:11:58.310Z,4.10
2017-05-10T16:14:26.849Z,5.03
2017-05-10T16:16:55.417Z,4.52
2017-05-10T16:19:23.940Z,4.02
2017-05-10T16:21:52.453Z,3.93
2017-05-10T16:24:21.420Z,6.68
2017-05-10T16:26:49.932Z,5.20
2017-05-10T16:29:18.487Z,5.13
2017-05-10T16:31:47.531Z,5.33
2017-05-10T16:34:16.052Z,4.32
2017-05-10T16:36:44.578Z,4.38
2017-05-10T16:39:13.148Z,4.42
2017-05-10T16:41:41.755Z,5.28
2017-05-10T16:44:10.285Z,7.38
2017-05-10T16:46:38.842Z,5.33
2017-05-10T16:49:07.360Z,5.52
2017-05-10T16:51:35.879Z,4.67
2017-05-10T16:54:04.452Z,5.77
2017-05-10T16:56:32.977Z,5.62
2017-05-10T16:59:01.625Z,5.12
2017-05-10T17:01:30.178Z,4.72
2017-05-10T17:03:58.704Z,4.23
2017-05-10T17:06:27.237Z,4.70
2017-05-10T17:08:55.794Z,4.33
2017-05-10T17:11:24.329Z,5.75
2017-05-10T17:13:52.856Z,4.65
2017-05-10T17:16:21.416Z,4.85
2017-05-10T17:18:49.943Z,4.53
2017-05-10T17:21:18.475Z,4.67
2017-05-10T17:23:47.087Z,4.80
2017-05-10T17:26:15.610Z,5.63
2017-05-10T17:28:44.134Z,5.42
2017-05-10T17:31:12.735Z,5.27
2017-05-10T17:33:41.281Z,5.78
2017-05-10T17:36:09.840Z,5.72
2017-05-10T17:38:38.408Z,5.67
2017-05-10T17:41:06.915Z,5.28
2017-05-10T17:43:35.445Z,6.00
2017-05-10T17:46:04.003Z,10.93
2017-05-10T17:48:32.818Z,5.72
2017-05-10T17:51:01.395Z,6.17
2017-05-10T17:53:29.966Z,5.18
2017-05-10T17:55:58.494Z,5.13
2017-05-10T17:58:27.019Z,4.73
2017-05-10T18:00:55.583Z,6.00
2017-05-10T18:03:24.211Z,7.85
2017-05-10T18:05:52.745Z,8.90
2017-05-10T18:08:21.321Z,22.60
2017-05-10T18:10:49.841Z,8.80
2017-05-10T18:13:18.373Z,8.75
2017-05-10T18:15:46.965Z,6.85
2017-05-10T18:18:15.560Z,8.37
2017-05-10T18:20:44.101Z,7.50
2017-05-10T18:23:13.039Z,9.37
2017-05-10T18:25:41.548Z,9.70
2017-05-10T18:28:10.060Z,7.33
2017-05-10T18:30:38.611Z,8.85
2017-05-10T18:33:07.326Z,9.38
2017-05-10T18:35:36.249Z,8.85
2017-05-10T18:38:04.889Z,8.48
2017-05-10T18:40:33.413Z,8.87
2017-05-10T18:43:01.956Z,9.43
2017-05-10T18:45:30.555Z,10.03
2017-05-10T18:47:59.100Z,10.03
2017-05-10T18:50:27.629Z,9.47
2017-05-10T18:52:56.207Z,8.67
2017-05-10T18:55:25.427Z,10.27
2017-05-10T18:57:53.973Z,10.42
2017-05-10T19:00:23.309Z,9.17
2017-05-10T19:02:51.892Z,11.00
2017-05-10T19:05:20.435Z,10.08
2017-05-10T19:07:49.022Z,11.17
2017-05-10T19:10:17.629Z,11.60
2017-05-10T19:12:46.148Z,11.42
2017-05-10T19:15:14.717Z,10.87
2017-05-10T19:17:43.979Z,12.18
2017-05-10T19:20:12.512Z,10.82
2017-05-10T19:22:41.082Z,11.65
2017-05-10T19:25:09.606Z,11.70
2017-05-10T19:27:38.130Z,10.48
2017-05-10T19:30:06.684Z,10.45
2017-05-10T19:32:35.207Z,11.68
2017-05-10T19:35:03.724Z,12.12
2017-05-10T19:37:32.421Z,10.15
2017-05-10T19:40:00.953Z,12.85
2017-05-10T19:42:29.485Z,10.83
2017-05-10T19:44:58.078Z,12.07
2017-05-10T19:47:26.639Z,12.87
2017-05-10T19:49:55.170Z,12.00
2017-05-10T19:52:23.738Z,11.80
2017-05-10T19:54:52.272Z,12.93
2017-05-10T19:57:20.822Z,12.50
2017-05-10T19:59:49.380Z,12.67
2017-05-10T20:02:17.930Z,12.40
2017-05-10T20:04:46.452Z,12.72
2017-05-10T20:07:15.020Z,13.65
2017-05-10T20:09:43.539Z,12.90
2017-05-10T20:12:12.057Z,13.87
2017-05-10T20:14:40.661Z,12.92
2017-05-10T20:17:09.194Z,13.05
2017-05-10T20:19:37.754Z,13.38
2017-05-10T20:22:06.353Z,12.67
2017-05-10T20:24:34.895Z,15.35
2017-05-10T20:27:03.435Z,13.17
2017-05-10T20:29:32.739Z,13.83
2017-05-10T20:32:01.286Z,14.12
2017-05-10T20:34:29.834Z,14.07
2017-05-10T20:36:58.517Z,14.32
2017-05-10T20:39:27.058Z,14.57
2017-05-10T20:41:55.584Z,15.83
2017-05-10T20:44:24.169Z,15.17
2017-05-10T20:46:52.827Z,15.80
2017-05-10T20:49:21.410Z,14.93
2017-05-10T20:51:50.001Z,15.60
2017-05-10T20:54:18.553Z,13.88
2017-05-10T20:56:47.103Z,14.68
2017-05-10T20:59:15.677Z,13.90
2017-05-10T21:01:44.204Z,15.07
2017-05-10T21:04:12.736Z,16.13
2017-05-10T21:06:41.368Z,18.17
2017-05-10T21:09:10.013Z,17.58
2017-05-10T21:11:38.547Z,15.80
2017-05-10T21:14:07.129Z,17.17
2017-05-10T21:16:35.650Z,15.85
2017-05-10T21:19:04.189Z,17.53
2017-05-10T21:21:32.789Z,16.00
2017-05-10T21:24:01.317Z,17.58
2017-05-10T21:26:29.838Z,17.53
2017-05-10T21:28:58.512Z,18.00
2017-05-10T21:31:27.042Z,16.12
2017-05-10T21:33:55.733Z,18.45
2017-05-10T21:36:24.328Z,17.60
2017-05-10T21:38:52.871Z,16.15
2017-05-10T21:41:21.427Z,18.12
2017-05-10T21:43:50.093Z,17.40
2017-05-10T21:46:18.632Z,17.85
2017-05-10T21:48:47.173Z,18.52
2017-05-10T21:51:15.743Z,17.00
2017-05-10T21:53:44.281Z,17.68
2017-05-10T21:56:12.842Z,16.03
2017-05-10T21:58:41.440Z,16.87
2017-05-10T22:01:09.961Z,16.95
2017-05-10T22:03:38.487Z,17.38
2017-05-10T22:06:07.069Z,17.12
2017-05-10T22:08:35.611Z,18.03
2017-05-10T22:11:04.151Z,16.20
2017-05-10T22:13:32.750Z,17.40
2017-05-10T22:16:01.302Z,16.73
2017-05-10T22:18:29.849Z,17.82
2017-05-10T22:20:58.411Z,15.90
2017-05-10T22:23:26.972Z,14.47
2017-05-10T22:25:55.505Z,15.00
2017-05-10T22:28:24.083Z,16.07
2017-05-10T22:30:52.625Z,16.18
2017-05-10T22:33:21.158Z,15.38
2017-05-10T22:35:49.727Z,15.27
2017-05-10T22:38:18.251Z,15.52
2017-05-10T22:40:46.796Z,14.77
2017-05-10T22:43:15.381Z,15.22
2017-05-10T22:45:43.917Z,16.53
2017-05-10T22:48:12.435Z,14.07
2017-05-10T22:50:41.024Z,14.85
2017-05-10T22:53:09.539Z,13.50
2017-05-10T22:55:38.068Z,14.02
2017-05-10T22:58:06.644Z,12.03
2017-05-10T23:00:35.156Z,14.03
2017-05-10T23:03:03.698Z,13.18
2017-05-10T23:05:32.257Z,13.40
2017-05-10T23:08:00.797Z,14.80
2017-05-10T23:10:29.331Z,11.85
2017-05-10T23:12:57.895Z,13.08
2017-05-10T23:15:26.438Z,12.85
2017-05-10T23:17:54.958Z,13.98
2017-05-10T23:20:23.524Z,13.60
2017-05-10T23:22:52.054Z,13.53
2017-05-10T23:25:20.585Z,13.90
2017-05-10T23:27:49.154Z,13.60
2017-05-10T23:30:17.683Z,15.47
2017-05-10T23:32:46.202Z,13.65
2017-05-10T23:35:14.781Z,14.23
2017-05-10T23:37:43.315Z,14.42
2017-05-10T23:40:11.821Z,14.65
2017-05-10T23:42:40.379Z,13.05
2017-05-10T23:45:08.915Z,12.50
2017-05-10T23:47:37.425Z,12.25
2017-05-10T23:50:05.966Z,13.22
2017-05-10T23:52:34.485Z,12.77
2017-05-10T23:55:03.731Z,10.85
2017-05-10T23:57:32.307Z,11.18
